createdAt,value
2023-02-21T00:01:42.750Z,5.84
2023-02-21T00:04:28.277Z,5.79
2023-02-21T00:07:13.637Z,5.60
2023-02-21T00:09:59.099Z,5.73
2023-02-21T00:12:44.549Z,5.76
2023-02-21T00:15:30.111Z,5.89
2023-02-21T00:18:15.434Z,5.83
2023-02-21T00:21:00.862Z,5.76
2023-02-21T00:23:46.338Z,5.77
2023-02-21T00:26:36.920Z,5.98
2023-02-21T00:29:22.037Z,5.89
2023-02-21T00:32:07.573Z,5.83
2023-02-21T00:34:53.080Z,5.78
2023-02-21T00:37:38.529Z,5.87
2023-02-21T00:40:24.431Z,5.88
2023-02-21T00:43:09.856Z,5.58
2023-02-21T00:45:55.304Z,5.52
2023-02-21T00:48:42.894Z,5.43
2023-02-21T00:51:28.751Z,5.44
2023-02-21T00:54:14.324Z,5.41
2023-02-21T00:56:59.646Z,5.56
2023-02-21T00:59:45.112Z,5.55
2023-02-21T01:02:30.557Z,5.68
2023-02-21T01:05:15.975Z,5.72
2023-02-21T01:08:01.533Z,5.71
2023-02-21T01:10:46.920Z,5.73
2023-02-21T01:13:32.518Z,5.83
2023-02-21T01:16:18.064Z,5.80
2023-02-21T01:19:03.401Z,5.69
2023-02-21T01:21:48.312Z,5.70
2023-02-21T01:24:36.237Z,5.73
2023-02-21T01:27:21.660Z,5.72
2023-02-21T01:30:07.210Z,5.83
2023-02-21T01:32:52.467Z,5.84
2023-02-21T01:35:37.938Z,5.95
2023-02-21T01:38:23.306Z,5.84
2023-02-21T01:41:08.740Z,5.77
2023-02-21T01:43:54.093Z,5.90
2023-02-21T01:46:40.043Z,5.99
2023-02-21T01:49:32.531Z,5.87
2023-02-21T01:52:19.969Z,6.01
2023-02-21T01:55:09.001Z,6.26
2023-02-21T01:57:54.904Z,6.14
2023-02-21T02:00:40.034Z,6.17
2023-02-21T02:03:28.625Z,6.27
2023-02-21T02:06:17.024Z,6.31
2023-02-21T02:09:02.380Z,6.28
2023-02-21T02:11:58.119Z,6.19
2023-02-21T02:14:48.969Z,6.01
2023-02-21T02:17:35.318Z,5.81
2023-02-21T02:20:39.626Z,5.76
2023-02-21T02:23:21.427Z,5.70
2023-02-21T02:26:29.767Z,5.64
2023-02-21T02:29:27.394Z,6.00
2023-02-21T02:32:31.582Z,6.05
2023-02-21T02:35:15.696Z,6.01
2023-02-21T02:37:51.361Z,5.88
2023-02-21T02:40:36.675Z,5.76
2023-02-21T02:43:17.451Z,5.69
2023-02-21T02:45:49.234Z,5.69
2023-02-21T02:48:28.140Z,5.57
2023-02-21T02:50:56.069Z,5.53
2023-02-21T02:53:26.856Z,5.35
2023-02-21T02:55:58.088Z,5.40
2023-02-21T02:58:29.205Z,5.23
2023-02-21T03:01:32.825Z,5.19
2023-02-21T03:04:17.638Z,5.18
2023-02-21T03:06:54.633Z,5.44
2023-02-21T03:09:32.818Z,5.49
2023-02-21T03:12:10.923Z,5.55
2023-02-21T03:14:46.199Z,5.41
2023-02-21T03:17:18.853Z,5.45
2023-02-21T03:19:48.030Z,5.57
2023-02-21T03:22:19.645Z,5.43
2023-02-21T03:24:50.664Z,5.35
2023-02-21T03:27:19.735Z,5.13
2023-02-21T03:29:47.138Z,5.01
2023-02-21T03:32:22.981Z,5.08
2023-02-21T03:34:51.866Z,4.93
2023-02-21T03:37:37.523Z,4.77
2023-02-21T03:40:08.891Z,4.60
2023-02-21T03:42:35.445Z,4.58
2023-02-21T03:45:02.256Z,5.11
2023-02-21T03:47:28.888Z,5.26
2023-02-21T03:49:55.548Z,6.13
2023-02-21T03:52:22.217Z,6.33
2023-02-21T03:54:48.864Z,6.75
2023-02-21T03:57:15.553Z,7.15
2023-02-21T03:59:42.267Z,7.49
2023-02-21T04:02:09.033Z,7.79
2023-02-21T04:04:35.692Z,7.83
2023-02-21T04:07:02.275Z,7.80
2023-02-21T04:09:29.378Z,7.90
2023-02-21T04:11:56.007Z,7.67
2023-02-21T04:14:22.827Z,7.48
2023-02-21T04:16:51.647Z,7.76
2023-02-21T04:19:20.728Z,7.85
2023-02-21T04:21:50.901Z,7.84
2023-02-21T04:24:17.609Z,7.64
2023-02-21T04:26:44.215Z,7.52
2023-02-21T04:29:11.194Z,7.80
2023-02-21T04:31:38.035Z,7.85
2023-02-21T04:34:11.726Z,7.78
2023-02-21T04:36:39.140Z,7.90
2023-02-21T04:39:07.035Z,7.97
2023-02-21T04:41:33.755Z,8.22
2023-02-21T04:44:00.414Z,8.53
2023-02-21T04:46:27.036Z,8.34
2023-02-21T04:48:53.914Z,8.22
2023-02-21T04:51:23.326Z,8.37
2023-02-21T04:53:50.739Z,8.15
2023-02-21T04:56:22.829Z,8.06
2023-02-21T04:58:49.839Z,8.24
2023-02-21T05:01:19.124Z,8.39
2023-02-21T05:03:45.900Z,8.25
2023-02-21T05:06:24.285Z,8.41
2023-02-21T05:08:51.028Z,8.50
2023-02-21T05:11:19.298Z,8.75
2023-02-21T05:13:50.667Z,8.67
2023-02-21T05:16:18.510Z,8.79
2023-02-21T05:18:47.110Z,8.69
2023-02-21T05:21:16.219Z,8.81
2023-02-21T05:23:55.829Z,8.74
2023-02-21T05:26:29.943Z,8.66
2023-02-21T05:28:56.951Z,8.62
2023-02-21T05:31:23.696Z,8.52
2023-02-21T05:33:50.406Z,8.70
2023-02-21T05:36:18.022Z,8.49
2023-02-21T05:38:50.391Z,8.55
2023-02-21T05:41:18.182Z,8.40
2023-02-21T05:43:46.509Z,8.56
2023-02-21T05:46:19.674Z,8.52
2023-02-21T05:48:46.787Z,8.40
2023-02-21T05:51:14.577Z,8.50
2023-02-21T05:53:41.446Z,8.44
2023-02-21T05:56:10.533Z,8.45
2023-02-21T05:58:37.408Z,8.53
2023-02-21T06:01:04.740Z,8.42
2023-02-21T06:03:31.404Z,8.56
2023-02-21T06:05:58.058Z,8.68
2023-02-21T06:08:27.475Z,8.76
2023-02-21T06:10:54.076Z,8.79
2023-02-21T06:13:20.800Z,8.86
2023-02-21T06:15:47.600Z,8.79
2023-02-21T06:18:15.638Z,8.85
2023-02-21T06:20:42.654Z,8.86
2023-02-21T06:23:09.252Z,9.11
2023-02-21T06:25:35.879Z,9.26
2023-02-21T06:28:02.482Z,9.35
2023-02-21T06:30:29.096Z,9.18
2023-02-21T06:32:55.736Z,9.15
2023-02-21T06:35:22.371Z,9.31
2023-02-21T06:37:49.038Z,9.25
2023-02-21T06:40:15.754Z,9.33
2023-02-21T06:42:42.374Z,9.59
2023-02-21T06:45:09.189Z,9.54
2023-02-21T06:47:36.370Z,9.59
2023-02-21T06:50:03.373Z,9.74
2023-02-21T06:52:31.785Z,9.77
2023-02-21T06:54:58.391Z,9.85
2023-02-21T06:57:25.006Z,10.10
2023-02-21T06:59:51.636Z,10.12
2023-02-21T07:02:20.056Z,10.21
2023-02-21T07:04:47.538Z,10.22
2023-02-21T07:07:14.644Z,10.23
2023-02-21T07:09:41.282Z,10.26
2023-02-21T07:12:08.912Z,10.42
2023-02-21T07:14:35.746Z,10.40
2023-02-21T07:17:02.369Z,10.46
2023-02-21T07:19:29.022Z,10.57
2023-02-21T07:21:55.741Z,10.66
2023-02-21T07:24:22.349Z,10.61
2023-02-21T07:26:49.441Z,10.76
2023-02-21T07:29:17.412Z,10.85
2023-02-21T07:31:44.179Z,10.89
2023-02-21T07:34:12.290Z,10.87
2023-02-21T07:36:40.294Z,10.97
2023-02-21T07:39:07.051Z,11.04
2023-02-21T07:41:33.669Z,11.14
2023-02-21T07:44:00.393Z,11.18
2023-02-21T07:46:29.781Z,11.47
2023-02-21T07:48:56.757Z,11.63
2023-02-21T07:51:23.588Z,11.81
2023-02-21T07:53:50.146Z,11.89
2023-02-21T07:56:16.848Z,12.33
2023-02-21T07:58:43.440Z,12.48
2023-02-21T08:01:10.109Z,12.60
2023-02-21T08:03:37.990Z,12.69
2023-02-21T08:06:05.165Z,12.92
2023-02-21T08:08:31.843Z,13.04
2023-02-21T08:10:58.484Z,13.71
2023-02-21T08:13:25.151Z,14.35
2023-02-21T08:15:51.780Z,15.46
2023-02-21T08:18:24.572Z,15.23
2023-02-21T08:20:52.437Z,15.50
2023-02-21T08:23:19.171Z,15.85
2023-02-21T08:25:46.665Z,15.41
2023-02-21T08:28:14.238Z,15.68
2023-02-21T08:30:40.923Z,15.75
2023-02-21T08:33:07.996Z,15.84
2023-02-21T08:35:35.230Z,14.94
2023-02-21T08:38:05.298Z,15.45
2023-02-21T08:40:32.036Z,16.27
2023-02-21T08:43:00.585Z,15.80
2023-02-21T08:45:29.001Z,16.25
2023-02-21T08:47:56.431Z,16.51
2023-02-21T08:50:25.387Z,16.92
2023-02-21T08:52:52.647Z,16.36
2023-02-21T08:55:20.522Z,16.48
2023-02-21T08:57:52.421Z,16.02
2023-02-21T09:00:23.412Z,16.36
2023-02-21T09:02:51.533Z,17.10
2023-02-21T09:05:24.501Z,18.04
2023-02-21T09:07:55.082Z,18.10
2023-02-21T09:10:22.187Z,18.79
2023-02-21T09:12:48.846Z,17.45
2023-02-21T09:15:16.247Z,17.16
2023-02-21T09:17:43.145Z,16.87
2023-02-21T09:20:15.329Z,16.40
2023-02-21T09:22:45.762Z,17.29
2023-02-21T09:25:13.482Z,17.03
2023-02-21T09:27:40.998Z,16.93
2023-02-21T09:30:17.174Z,16.38
2023-02-21T09:32:43.851Z,16.22
2023-02-21T09:35:13.917Z,17.80
2023-02-21T09:37:41.350Z,17.93
2023-02-21T09:40:14.229Z,17.46
2023-02-21T09:42:41.499Z,18.21
2023-02-21T09:45:15.966Z,18.20
2023-02-21T09:47:45.410Z,18.69
2023-02-21T09:50:16.641Z,18.66
2023-02-21T09:52:43.322Z,18.02
2023-02-21T09:55:31.728Z,18.23
2023-02-21T09:57:58.373Z,18.68
2023-02-21T10:00:35.911Z,18.93
2023-02-21T10:03:27.591Z,18.22
2023-02-21T10:06:05.663Z,17.73
2023-02-21T10:08:44.674Z,18.55
2023-02-21T10:11:31.346Z,18.47
2023-02-21T10:14:32.953Z,18.32
2023-02-21T10:17:11.393Z,17.49
2023-02-21T10:19:43.490Z,17.28
2023-02-21T10:22:23.738Z,17.40
2023-02-21T10:24:53.221Z,17.61
2023-02-21T10:27:19.840Z,17.83
2023-02-21T10:30:00.288Z,17.84
2023-02-21T10:32:27.560Z,18.14
2023-02-21T10:34:55.075Z,18.72
2023-02-21T10:37:21.738Z,19.10
2023-02-21T10:39:58.459Z,19.55
2023-02-21T10:42:38.480Z,18.05
2023-02-21T10:45:07.264Z,18.63
2023-02-21T10:47:39.907Z,18.22
2023-02-21T10:50:08.988Z,17.96
2023-02-21T10:52:50.255Z,17.89
2023-02-21T10:55:32.317Z,18.45
2023-02-21T10:58:06.990Z,18.23
2023-02-21T11:00:48.000Z,18.92
2023-02-21T11:03:17.962Z,17.98
2023-02-21T11:06:01.859Z,18.56
2023-02-21T11:08:43.340Z,17.75
2023-02-21T11:11:10.984Z,18.39
2023-02-21T11:13:38.457Z,18.55
2023-02-21T11:16:17.146Z,18.42
2023-02-21T11:18:43.897Z,18.36
2023-02-21T11:21:16.700Z,17.84
2023-02-21T11:24:05.332Z,19.21
2023-02-21T11:26:46.042Z,18.44
2023-02-21T11:29:17.289Z,18.37
2023-02-21T11:31:45.252Z,18.00
2023-02-21T11:34:14.686Z,19.27
2023-02-21T11:36:46.667Z,18.81
2023-02-21T11:39:21.659Z,19.58
2023-02-21T11:41:57.459Z,19.64
2023-02-21T11:44:32.338Z,20.05
2023-02-21T11:47:05.183Z,19.49
2023-02-21T11:49:51.087Z,18.80
2023-02-21T11:53:03.714Z,19.10
2023-02-21T11:55:35.053Z,19.71
2023-02-21T11:58:20.201Z,19.86
2023-02-21T12:01:19.719Z,18.81
2023-02-21T12:03:59.651Z,17.65
2023-02-21T12:06:32.172Z,17.72
2023-02-21T12:09:08.440Z,17.92
2023-02-21T12:12:02.314Z,17.37
2023-02-21T12:14:48.788Z,17.56
2023-02-21T12:17:37.272Z,17.55
2023-02-21T12:20:31.551Z,17.91
2023-02-21T12:23:19.395Z,17.19
2023-02-21T12:26:23.604Z,17.10
2023-02-21T12:28:59.331Z,18.09
2023-02-21T12:31:46.116Z,17.36
2023-02-21T12:34:18.863Z,16.68
2023-02-21T12:36:46.220Z,17.56
2023-02-21T12:39:28.379Z,17.51
2023-02-21T12:42:33.750Z,17.40
2023-02-21T12:45:24.774Z,16.74
2023-02-21T12:48:00.074Z,17.38
2023-02-21T12:50:36.154Z,18.15
2023-02-21T12:53:09.544Z,17.14
2023-02-21T12:55:51.058Z,17.23
2023-02-21T12:58:27.021Z,16.68
2023-02-21T13:01:12.086Z,17.12
2023-02-21T13:03:54.003Z,16.89
2023-02-21T13:06:36.058Z,16.81
2023-02-21T13:09:05.793Z,16.54
2023-02-21T13:11:43.245Z,16.51
2023-02-21T13:14:16.774Z,17.04
2023-02-21T13:16:43.474Z,17.08
2023-02-21T13:19:13.051Z,16.21
2023-02-21T13:22:35.877Z,16.37
2023-02-21T13:25:19.189Z,16.48
2023-02-21T13:28:23.828Z,16.22
2023-02-21T13:30:52.848Z,15.81
2023-02-21T13:33:30.672Z,15.35
2023-02-21T13:35:59.934Z,15.73
2023-02-21T13:38:29.640Z,15.42
2023-02-21T13:41:24.896Z,15.51
2023-02-21T13:43:53.528Z,15.59
2023-02-21T13:46:32.097Z,16.24
2023-02-21T13:49:36.299Z,15.43
2023-02-21T13:52:32.208Z,16.14
2023-02-21T13:55:20.357Z,15.04
2023-02-21T13:57:46.896Z,15.08
2023-02-21T14:00:25.102Z,14.76
2023-02-21T14:03:07.097Z,15.18
2023-02-21T14:05:52.391Z,14.83
2023-02-21T14:08:36.151Z,14.93
2023-02-21T14:11:15.550Z,15.11
2023-02-21T14:13:57.661Z,14.88
2023-02-21T14:16:46.115Z,15.16
2023-02-21T14:19:59.658Z,15.18
2023-02-21T14:22:31.436Z,15.02
2023-02-21T14:25:28.705Z,14.63
2023-02-21T14:27:56.240Z,14.42
2023-02-21T14:30:43.026Z,13.83
2023-02-21T14:33:25.614Z,13.94
2023-02-21T14:36:01.128Z,13.97
2023-02-21T14:38:32.924Z,13.79
2023-02-21T14:41:26.984Z,13.77
2023-02-21T14:44:09.811Z,13.71
2023-02-21T14:46:51.764Z,13.64
2023-02-21T14:49:18.301Z,13.62
2023-02-21T14:52:20.804Z,13.66
2023-02-21T14:55:08.939Z,13.77
2023-02-21T14:58:04.157Z,13.62
2023-02-21T15:00:46.594Z,13.49
2023-02-21T15:03:20.858Z,13.31
2023-02-21T15:05:50.180Z,13.10
2023-02-21T15:08:22.645Z,12.95
2023-02-21T15:10:51.631Z,12.94
2023-02-21T15:13:28.278Z,12.85
2023-02-21T15:15:56.796Z,12.80
2023-02-21T15:18:29.647Z,12.80
2023-02-21T15:21:10.440Z,12.75
2023-02-21T15:23:49.507Z,12.62
2023-02-21T15:26:18.740Z,12.58
2023-02-21T15:28:45.924Z,12.56
2023-02-21T15:31:13.790Z,12.49
2023-02-21T15:33:42.904Z,12.43
2023-02-21T15:36:22.656Z,12.41
2023-02-21T15:38:54.763Z,12.45
2023-02-21T15:41:43.325Z,12.40
2023-02-21T15:44:23.390Z,12.21
2023-02-21T15:47:06.066Z,12.06
2023-02-21T15:49:40.789Z,12.10
2023-02-21T15:52:07.762Z,12.02
2023-02-21T15:54:38.621Z,11.85
2023-02-21T15:57:05.713Z,11.75
2023-02-21T15:59:33.671Z,11.70
2023-02-21T16:02:09.334Z,11.72
2023-02-21T16:04:38.757Z,11.61
2023-02-21T16:07:08.406Z,11.60
2023-02-21T16:09:36.582Z,11.48
2023-02-21T16:12:24.049Z,11.46
2023-02-21T16:15:20.322Z,11.30
2023-02-21T16:17:57.200Z,10.90
2023-02-21T16:20:44.616Z,10.51
2023-02-21T16:23:20.473Z,10.28
2023-02-21T16:26:17.899Z,10.10
2023-02-21T16:28:45.849Z,10.32
2023-02-21T16:31:39.906Z,10.37
2023-02-21T16:34:09.979Z,10.36
2023-02-21T16:36:39.172Z,10.51
2023-02-21T16:39:05.791Z,10.32
2023-02-21T16:41:32.427Z,10.35
2023-02-21T16:44:01.524Z,10.46
2023-02-21T16:46:30.064Z,10.74
2023-02-21T16:48:59.015Z,10.96
2023-02-21T16:51:25.926Z,10.93
2023-02-21T16:53:52.661Z,10.93
2023-02-21T16:56:19.351Z,10.87
2023-02-21T16:58:52.737Z,10.83
2023-02-21T17:01:32.902Z,10.79
2023-02-21T17:04:01.578Z,10.89
2023-02-21T17:06:29.207Z,10.97
2023-02-21T17:08:56.964Z,10.77
2023-02-21T17:11:23.649Z,10.77
2023-02-21T17:13:50.198Z,10.73
2023-02-21T17:16:17.346Z,10.72
2023-02-21T17:18:45.217Z,10.51
2023-02-21T17:21:12.564Z,10.35
2023-02-21T17:23:39.294Z,10.48
2023-02-21T17:26:05.853Z,10.38
2023-02-21T17:28:32.554Z,10.31
2023-02-21T17:30:59.178Z,10.44
2023-02-21T17:33:25.793Z,10.52
2023-02-21T17:35:55.265Z,10.59
2023-02-21T17:38:21.845Z,10.70
2023-02-21T17:40:49.583Z,10.62
2023-02-21T17:43:16.603Z,10.62
2023-02-21T17:45:43.256Z,10.58
2023-02-21T17:48:09.808Z,10.45
2023-02-21T17:50:36.379Z,10.47
2023-02-21T17:53:02.989Z,10.34
2023-02-21T17:55:30.238Z,10.35
2023-02-21T17:57:57.574Z,10.37
2023-02-21T18:00:29.370Z,10.43
2023-02-21T18:02:56.890Z,10.50
2023-02-21T18:05:23.838Z,10.52
2023-02-21T18:07:52.846Z,10.76
2023-02-21T18:10:22.200Z,10.85
2023-02-21T18:12:51.105Z,10.64
2023-02-21T18:15:27.379Z,10.68
2023-02-21T18:17:54.011Z,10.70
2023-02-21T18:20:21.006Z,10.58
2023-02-21T18:22:47.633Z,10.51
2023-02-21T18:25:18.617Z,10.44
2023-02-21T18:27:45.301Z,10.39
2023-02-21T18:30:16.650Z,10.43
2023-02-21T18:32:43.440Z,10.20
2023-02-21T18:35:12.569Z,10.10
2023-02-21T18:37:39.177Z,9.88
2023-02-21T18:40:08.602Z,9.45
2023-02-21T18:42:35.243Z,9.12
2023-02-21T18:45:01.990Z,8.88
2023-02-21T18:47:28.622Z,8.69
2023-02-21T18:49:56.563Z,8.26
2023-02-21T18:52:23.519Z,8.19
2023-02-21T18:54:51.016Z,8.06
2023-02-21T18:57:19.438Z,7.97
2023-02-21T18:59:46.276Z,7.81
2023-02-21T19:02:22.074Z,7.91
2023-02-21T19:04:48.674Z,7.74
2023-02-21T19:07:18.843Z,7.73
2023-02-21T19:09:47.295Z,7.78
2023-02-21T19:12:21.687Z,7.63
2023-02-21T19:14:50.508Z,7.63
2023-02-21T19:17:18.688Z,7.59
2023-02-21T19:19:46.884Z,7.76
2023-02-21T19:22:13.563Z,7.60
2023-02-21T19:24:40.467Z,7.83
2023-02-21T19:27:07.049Z,7.76
2023-02-21T19:29:33.670Z,7.68
2023-02-21T19:32:00.390Z,7.62
2023-02-21T19:34:27.271Z,7.74
2023-02-21T19:36:53.916Z,7.89
2023-02-21T19:39:20.579Z,7.95
2023-02-21T19:41:47.582Z,8.08
2023-02-21T19:44:16.490Z,8.16
2023-02-21T19:46:43.158Z,8.20
2023-02-21T19:49:17.983Z,8.15
2023-02-21T19:51:46.792Z,8.01
2023-02-21T19:54:14.329Z,7.96
2023-02-21T19:56:44.114Z,8.01
2023-02-21T19:59:12.124Z,7.90
2023-02-21T20:01:39.689Z,7.91
2023-02-21T20:04:06.674Z,7.97
2023-02-21T20:06:35.459Z,7.75
2023-02-21T20:09:05.626Z,7.57
2023-02-21T20:11:32.451Z,7.47
2023-02-21T20:13:59.838Z,7.41
2023-02-21T20:16:28.106Z,7.42
2023-02-21T20:18:57.341Z,7.42
2023-02-21T20:21:27.042Z,7.46
2023-02-21T20:23:55.206Z,7.47
2023-02-21T20:26:23.377Z,7.38
2023-02-21T20:28:53.294Z,7.27
2023-02-21T20:31:23.591Z,7.22
2023-02-21T20:33:50.231Z,7.12
2023-02-21T20:36:27.168Z,7.10
2023-02-21T20:38:54.875Z,7.04
2023-02-21T20:41:21.676Z,6.96
2023-02-21T20:43:52.898Z,6.98
2023-02-21T20:46:25.028Z,7.06
2023-02-21T20:48:51.808Z,7.02
2023-02-21T20:51:27.191Z,6.95
2023-02-21T20:53:53.793Z,6.67
2023-02-21T20:56:20.380Z,6.52
2023-02-21T20:58:46.956Z,6.17
2023-02-21T21:01:14.894Z,5.94
2023-02-21T21:03:41.828Z,5.66
2023-02-21T21:06:11.680Z,5.52
2023-02-21T21:08:38.315Z,5.23
2023-02-21T21:11:05.178Z,5.19
2023-02-21T21:13:31.766Z,5.12
2023-02-21T21:15:58.371Z,4.90
2023-02-21T21:18:25.051Z,4.64
2023-02-21T21:20:51.658Z,4.60
2023-02-21T21:23:18.279Z,4.50
2023-02-21T21:25:44.924Z,4.51
2023-02-21T21:28:13.210Z,4.38
2023-02-21T21:30:40.786Z,4.44
2023-02-21T21:33:07.492Z,4.53
2023-02-21T21:35:37.211Z,4.73
2023-02-21T21:38:07.278Z,5.06
2023-02-21T21:40:33.864Z,5.24
2023-02-21T21:43:02.536Z,5.63
2023-02-21T21:45:29.180Z,5.73
2023-02-21T21:47:58.613Z,5.91
2023-02-21T21:50:25.834Z,6.12
2023-02-21T21:52:57.469Z,6.40
2023-02-21T21:55:26.988Z,6.51
2023-02-21T21:57:54.422Z,6.38
2023-02-21T22:00:24.421Z,7.09
2023-02-21T22:02:57.868Z,7.32
2023-02-21T22:05:31.561Z,7.57
2023-02-21T22:08:00.057Z,7.66
2023-02-21T22:10:27.824Z,7.61
2023-02-21T22:12:56.760Z,7.80
2023-02-21T22:15:27.743Z,7.62
2023-02-21T22:17:55.705Z,7.88
2023-02-21T22:20:31.284Z,7.88
2023-02-21T22:22:58.738Z,8.12
2023-02-21T22:25:27.865Z,8.17
2023-02-21T22:27:54.574Z,8.11
2023-02-21T22:30:22.450Z,8.06
2023-02-21T22:32:52.414Z,8.09
2023-02-21T22:35:21.506Z,8.11
2023-02-21T22:37:52.150Z,8.16
2023-02-21T22:40:26.157Z,8.08
2023-02-21T22:42:59.488Z,7.83
2023-02-21T22:45:27.675Z,7.82
2023-02-21T22:47:57.564Z,7.93
2023-02-21T22:50:26.116Z,8.13
2023-02-21T22:52:54.845Z,8.26
2023-02-21T22:55:26.210Z,8.24
2023-02-21T22:57:54.931Z,8.16
2023-02-21T23:00:24.974Z,8.23
2023-02-21T23:02:52.104Z,8.09
2023-02-21T23:05:23.065Z,7.94
2023-02-21T23:07:51.504Z,8.14
2023-02-21T23:10:23.817Z,8.06
2023-02-21T23:12:56.226Z,7.84
2023-02-21T23:15:25.546Z,7.91
2023-02-21T23:17:52.851Z,7.92
2023-02-21T23:20:23.397Z,8.05
2023-02-21T23:22:50.954Z,8.01
2023-02-21T23:25:19.984Z,7.90
2023-02-21T23:27:48.268Z,7.89
2023-02-21T23:30:18.675Z,8.00
2023-02-21T23:32:46.544Z,7.93
2023-02-21T23:35:17.247Z,7.83
2023-02-21T23:37:45.500Z,7.87
2023-02-21T23:40:16.605Z,8.01
2023-02-21T23:42:45.604Z,7.94
2023-02-21T23:45:15.258Z,7.91
2023-02-21T23:47:42.138Z,7.98
2023-02-21T23:50:17.307Z,7.88
2023-02-21T23:52:48.872Z,7.88
2023-02-21T23:55:17.553Z,7.62
2023-02-21T23:57:46.236Z,7.51
